Terminal Aerodrome Forecast
Issued by NWS Jackson, KY

Home | Current Version | Previous Version | Text Only | Print | Product List | Glossary On
Versions: 1 2 3 4 5 6 7 8 9 10 11 12
892
FTUS43 KJKL 261733
TAFJKL
TAF
KJKL 261733Z 2618/2718 30006KT P6SM VCTS BKN030CB
     FM270000 30006KT P6SM VCSH BKN040
     FM270200 VRB03KT P6SM BKN100
     FM270500 00000KT P6SM SKC=

USA.gov is the U.S. government's official web portal to all federal, state and local government web resources and services.